Have a Safe July 4th! 

Flight Track Log - Related Links

Times and Time Zones

All times are in EST time to prevent confusion due to time zone crossing. See the CES2228 flight status page for this flight to view local times or setup timezone preferences in your user account.

Time Position Orientation Groundspeed Altitude Reporting Facility
EST Latitude Longitude Course Direction KTS MPH feet Rate Location/Type
Sat 07:19:00 AM 32.7688 106.3870 91° East  Level Estimated
Sat 07:20:00 AM 32.7626 106.5292 93° East  Level Estimated
Sat 07:21:00 AM 32.7562 106.6713 93° East  Level Estimated
Sat 07:22:00 AM 32.7496 106.8134 93° East  Level Estimated
Sat 07:23:00 AM 32.7429 106.9555 93° East  Level Estimated
Sat 07:24:00 AM 32.7360 107.0976 93° East  Level Estimated
Sat 07:25:00 AM 32.7289 107.2396 93° East  Level Estimated
Sat 07:26:00 AM 32.7217 107.3816 93° East  Level Estimated
Sat 07:27:00 AM 32.7144 107.5236 93° East  Level Estimated
Sat 07:28:00 AM 32.7068 107.6656 94° East  Level Estimated
Sat 07:29:00 AM 32.6991 107.8075 94° East  Level Estimated
Sat 07:30:00 AM 32.6913 107.9495 94° East  Level Estimated
Sat 07:31:00 AM 32.6833 108.0914 94° East  Level Estimated
Sat 07:32:00 AM 32.6751 108.2333 94° East  Level Estimated
Sat 07:33:00 AM 32.6668 108.3751 94° East  Level Estimated
Sat 07:34:00 AM 32.6583 108.5169 94° East  Level Estimated
Sat 07:35:00 AM 32.6496 108.6587 94° East  Level Estimated
Sat 07:36:00 AM 32.6408 108.8005 94° East  Level Estimated
Sat 07:37:00 AM 32.6319 108.9422 94° East  Level Estimated
Sat 07:38:00 AM 32.6227 109.0839 94° East  Level Estimated
Sat 07:39:00 AM 32.6134 109.2256 94° East  Level Estimated
Sat 07:40:00 AM 32.6040 109.3673 94° East  Level Estimated
Sat 07:41:00 AM 32.5944 109.5089 95° East  Level Estimated
Sat 07:42:00 AM 32.5846 109.6505 95° East  Level Estimated
Sat 07:43:00 AM 32.5747 109.7920 95° East  Level Estimated
Sat 07:44:00 AM 32.5647 109.9336 95° East  Level Estimated
Sat 07:45:00 AM 32.5544 110.0751 95° East  Level Estimated
Sat 07:46:00 AM 32.5440 110.2165 95° East  Level Estimated
Sat 07:47:00 AM 32.5335 110.3579 95° East  Level Estimated
Sat 07:48:00 AM 32.5228 110.4994 95° East  Level Estimated
Sat 07:49:00 AM 32.5119 110.6407 95° East  Level Estimated
Sat 07:50:00 AM 32.5009 110.7820 95° East  Level Estimated
Sat 07:51:00 AM 32.4897 110.9233 95° East  Level Estimated
Sat 07:52:00 AM 32.4783 111.0646 95° East  Level Estimated
Sat 07:53:00 AM 32.4668 111.2058 95° East  Level Estimated
Sat 07:54:00 AM 32.4552 111.3470 96° East  Level Estimated
Sat 07:55:00 AM 32.4433 111.4882 96° East  Level Estimated
Sat 07:56:00 AM 32.4314 111.6293 96° East  Level Estimated
Sat 07:57:00 AM 32.4192 111.7703 96° East  Level Estimated
Sat 07:58:00 AM 32.4069 111.9114 96° East  Level Estimated
Sat 07:59:00 AM 32.3945 112.0524 96° East  Level Estimated
Sat 08:00:00 AM 32.3819 112.1933 96° East  Level Estimated
Sat 08:01:00 AM 32.3691 112.3343 96° East  Level Estimated
Sat 08:02:00 AM 32.3562 112.4751 96° East  Level Estimated
Sat 08:03:00 AM 32.3431 112.6160 96° East  Level Estimated
Sat 08:04:00 AM 32.3299 112.7568 96° East  Level Estimated
Sat 08:05:00 AM 32.3165 112.8975 96° East  Level Estimated
Sat 08:06:00 AM 32.3030 113.0382 96° East  Level Estimated
Sat 08:07:00 AM 32.2893 113.1789 97° East  Level Estimated
Sat 08:08:00 AM 32.2754 113.3195 97° East  Level Estimated
Sat 08:09:00 AM 32.2614 113.4601 97° East  Level Estimated
Sat 08:10:00 AM 32.2472 113.6007 97° East  Level Estimated
Sat 08:11:00 AM 32.2329 113.7412 97° East  Level Estimated
Sat 08:12:00 AM 32.2184 113.8816 97° East  Level Estimated
Sat 08:13:00 AM 32.2038 114.0220 97° East  Level Estimated
Sat 08:14:00 AM 32.1890 114.1624 97° East  Level Estimated
Sat 08:15:00 AM 32.1741 114.3027 97° East  Level Estimated
Sat 08:16:00 AM 32.1590 114.4430 97° East  Level Estimated
Sat 08:17:00 AM 32.1437 114.5832 97° East  Level Estimated
Sat 08:18:00 AM 32.1283 114.7234 97° East  Level Estimated
Sat 08:19:00 AM 32.1128 114.8635 97° East  Level Estimated
Sat 08:20:00 AM 32.0971 115.0036 98° East  Level Estimated
Sat 08:21:00 AM 32.0812 115.1436 98° East  Level Estimated
Sat 08:22:00 AM 32.0652 115.2836 98° East  Level Estimated
Sat 08:23:00 AM 32.0490 115.4235 98° East  Level Estimated
Sat 08:24:00 AM 32.0327 115.5634 98° East  Level Estimated
Sat 08:25:00 AM 32.0162 115.7033 98° East  Level Estimated
Sat 08:26:00 AM 31.9995 115.8431 98° East  Level Estimated
Sat 08:27:00 AM 31.9827 115.9828 98° East  Level Estimated
Sat 08:28:00 AM 31.9658 116.1225 98° East  Level Estimated
Sat 08:29:00 AM 31.9487 116.2621 98° East  Level Estimated
Sat 08:30:00 AM 31.9315 116.4017 98° East  Level Estimated
Sat 08:31:00 AM 31.9141 116.5412 98° East  Level Estimated
Sat 08:32:00 AM 31.8965 116.6807 98° East  Level Estimated
Sat 08:33:00 AM 31.8788 116.8201 98° East  Level Estimated
Sat 08:34:00 AM 31.8609 116.9595 99° East  Level Estimated
Sat 08:35:00 AM 31.8429 117.0988 99° East  Level Estimated
Sat 08:36:00 AM 31.8248 117.2380 99° East  Level Estimated
Sat 08:37:00 AM 31.8065 117.3772 99° East  Level Estimated
Sat 08:38:00 AM 31.7880 117.5164 99° East  Level Estimated
Sat 08:39:00 AM 31.7694 117.6555 99° East  Level Estimated
Sat 08:40:00 AM 31.7506 117.7945 99° East  Level Estimated
Sat 08:41:00 AM 31.7317 117.9335 99° East  Level Estimated
Sat 08:42:00 AM 31.7126 118.0724 99° East  Level Estimated
Sat 08:43:00 AM 31.6934 118.2113 99° East  Level Estimated
Sat 08:44:00 AM 31.6740 118.3501 99° East  Level Estimated
Sat 08:45:00 AM 31.6545 118.4888 99° East  Level Estimated
Sat 08:46:00 AM 31.6348 118.6275 99° East  Level Estimated
Sat 08:47:00 AM 31.6150 118.7662 99° East  Level Estimated
Sat 08:48:00 AM 31.5950 118.9047 100° East  Level Estimated
Sat 08:49:00 AM 31.5749 119.0432 100° East  Level Estimated
Sat 08:50:00 AM 31.5546 119.1817 100° East  Level Estimated
Sat 08:51:00 AM 31.5342 119.3201 100° East  Level Estimated
Sat 08:52:00 AM 31.5137 119.4584 100° East  Level Estimated
Sat 08:53:00 AM 31.4930 119.5967 100° East  Level Estimated
Sat 08:54:00 AM 31.4721 119.7349 100° East  Level Estimated
Sat 08:55:00 AM 31.4511 119.8730 100° East  Level Estimated
Sat 08:56:00 AM 31.4299 120.0111 100° East  Level Estimated
Sat 08:57:00 AM 31.4086 120.1491 100° East  Level Estimated
Sat 08:58:00 AM 31.3871 120.2871 100° East  Level Estimated
Sat 08:59:00 AM 31.3655 120.4250 100° East  Level Estimated
Sat 09:00:00 AM 31.3438 120.5628 100° East  Level Estimated
Sat 09:01:00 AM 31.3219 120.7006 101° East  Level Estimated
Sat 09:02:00 AM 31.2999 120.8383 101° East  Level Estimated
Sat 09:03:00 AM 31.2771 120.9792 101° East  Level Estimated
Sat 09:04:00 AM 31.2543 121.1201 101° East  Level Estimated
Sat 09:05:00 AM 31.2312 121.2608 101° East  Level Estimated
Sat 09:06:00 AM 31.2080 121.4016 101° East  Level Estimated
Sat 09:07:00 AM 31.1847 121.5422 101° East  Level Estimated
Sat 09:08:00 AM 31.1612 121.6828 101° East  Level Estimated
Sat 09:09:00 AM 31.1428 121.7924 101° East  Level Estimated
Sat 09:10:00 AM 31.1428 121.7924 221° Southwest  Level Estimated
Sat 09:11:00 AM 31.1428 121.7924 221° Southwest  Level Estimated
Sat 09:12:00 AM 31.1428 121.7924 221° Southwest  Level Estimated
Sat 09:13:00 AM 31.1428 121.7924 221° Southwest  Level Estimated
Sat 09:14:00 AM 31.1428 121.7924 221° Southwest  Level Estimated
Sat 09:15:00 AM 31.1428 121.7924 221° Southwest  Level Estimated
Sat 09:16:00 AM 31.1428 121.7924 221° Southwest  Level Estimated
Sat 09:17:00 AM 31.1428 121.7924 221° Southwest  Level Estimated
Sat 09:18:00 AM 31.1428 121.7924 221° Southwest  Level Estimated

Login

Don't have an account? Register now (free) for customized features, flight alerts, and more!